CDT,Max TemperatureF,Mean TemperatureF,Min TemperatureF,Max Dew PointF,MeanDew PointF,Min DewpointF,Max Humidity, Mean Humidity, Min Humidity, Max Sea Level PressureIn, Mean Sea Level PressureIn, Min Sea Level PressureIn, Max VisibilityMiles, Mean VisibilityMiles, Min VisibilityMiles, Max Wind SpeedMPH, Mean Wind SpeedMPH, Max Gust SpeedMPH,PrecipitationIn, CloudCover, Events, WindDirDegrees
2013-4-1,46,37,27,32,22,16,70,51,31,30.22,30.12,29.92,10,10,10,22,14,28,0.00,2,,320
2013-4-2,48,35,21,20,16,12,81,53,24,30.34,30.29,30.23,10,10,10,18,8,22,0.00,0,,315
2013-4-3,50,37,24,21,18,15,74,50,26,30.45,30.37,30.32,10,10,10,17,8,22,0.00,0,,52
2013-4-4,59,44,28,24,20,16,69,45,21,30.30,30.14,30.03,10,10,10,10,6,13,0.00,0,,94
2013-4-5,61,47,33,33,26,18,76,50,23,30.17,30.11,30.02,10,10,8,18,11,22,0.00,0,,17
2013-4-6,73,56,39,42,33,24,64,46,27,30.11,29.91,29.72,10,10,10,38,22,48,T,2,Rain,160
2013-4-7,74,60,45,45,40,37,83,55,27,29.94,29.88,29.75,10,10,9,24,8,31,0.00,1,,258
2013-4-8,76,66,56,58,54,51,86,68,49,29.92,29.82,29.75,10,10,10,28,15,37,0.02,5,Rain,189
2013-4-9,78,67,55,59,56,52,86,67,47,29.93,29.88,29.85,10,10,8,35,16,43,T,6,Thunderstorm,167
2013-4-10,72,59,46,64,53,45,93,85,76,29.86,29.79,29.65,10,5,0,35,14,45,1.37,7,Rain-Thunderstorm,39
2013-4-11,59,49,39,57,47,34,100,90,79,29.77,29.64,29.59,10,7,1,24,14,29,0.12,8,Rain,241
2013-4-12,44,41,37,36,33,30,85,78,70,29.96,29.78,29.67,10,10,10,26,16,32,T,8,Rain,245
2013-4-13,52,46,39,39,34,29,86,68,50,30.04,29.99,29.95,10,10,10,26,12,31,0.00,7,,256
2013-4-14,75,59,42,50,44,38,89,64,38,29.99,29.83,29.70,10,10,9,29,16,36,0.04,2,Rain,142
2013-4-15,67,58,48,61,53,46,97,82,67,29.93,29.86,29.78,10,9,3,23,16,30,0.19,7,Rain,174
2013-4-16,52,49,45,46,44,40,93,82,71,30.20,30.10,29.90,10,7,1,22,12,26,0.99,8,Rain-Thunderstorm,20
2013-4-17,73,59,45,69,51,38,100,86,71,30.19,29.97,29.75,10,6,0,32,15,40,0.35,7,Rain-Thunderstorm,71
2013-4-18,70,56,41,65,57,37,97,88,78,29.70,29.65,29.55,10,6,1,31,20,37,2.17,7,Rain-Thunderstorm,199
2013-4-19,41,38,35,37,31,28,82,74,65,30.03,29.78,29.64,10,10,9,30,20,38,0.01,8,Rain,264
2013-4-20,48,40,31,33,29,26,92,69,45,30.42,30.26,30.05,10,10,10,12,7,21,0.00,3,,319
2013-4-21,56,45,33,40,33,28,89,68,47,30.51,30.42,30.34,10,10,10,20,11,25,0.00,0,,108
2013-4-22,68,53,37,48,39,33,85,59,32,30.32,30.19,30.06,10,10,10,17,9,32,0.00,1,,123
2013-4-23,59,50,40,56,48,39,96,81,66,30.06,29.92,29.83,10,8,2,28,13,35,0.53,7,Rain,186
2013-4-24,50,43,36,39,35,32,100,78,56,30.23,30.08,29.92,10,9,3,21,13,25,0.10,6,Rain,299
2013-4-25,55,45,35,36,32,29,92,67,41,30.35,30.28,30.18,10,10,10,26,12,44,0.00,1,,249
2013-4-26,63,50,36,47,41,33,92,70,48,30.40,30.35,30.30,10,10,10,21,10,25,0.00,2,,172
2013-4-27,63,54,44,52,48,42,93,71,48,30.31,30.12,29.95,10,7,2,20,9,24,0.46,7,Rain,88
2013-4-28,61,57,52,55,54,52,100,89,78,29.95,29.89,29.86,10,6,2,14,7,16,0.06,8,Rain,348
2013-4-29,73,59,44,57,51,44,100,79,57,29.97,29.91,29.83,10,6,0,22,12,26,0.00,0,Fog,191
2013-4-30,83,70,56,61,56,52,86,65,43,29.98,29.90,29.86,10,10,10,21,14,25,0.00,0,,167